sensor_id;sensor_type;location;lat;lon;timestamp;P1;durP1;ratioP1;P2;durP2;ratioP2
64401;SDS011;50724;42.376;23.768;2024-03-25T00:00:52;3.97;;;1.60;;
64401;SDS011;50724;42.376;23.768;2024-03-25T00:03:53;3.83;;;1.60;;
64401;SDS011;50724;42.376;23.768;2024-03-25T00:06:54;5.43;;;1.50;;
64401;SDS011;50724;42.376;23.768;2024-03-25T00:09:54;3.92;;;1.65;;
64401;SDS011;50724;42.376;23.768;2024-03-25T00:12:55;1.15;;;0.70;;
64401;SDS011;50724;42.376;23.768;2024-03-25T00:15:56;0.30;;;0.30;;
64401;SDS011;50724;42.376;23.768;2024-03-25T00:18:57;0.20;;;0.10;;
64401;SDS011;50724;42.376;23.768;2024-03-25T00:22:14;0.17;;;0.17;;
64401;SDS011;50724;42.376;23.768;2024-03-25T00:28:16;0.22;;;0.13;;
64401;SDS011;50724;42.376;23.768;2024-03-25T00:31:17;0.32;;;0.20;;
64401;SDS011;50724;42.376;23.768;2024-03-25T00:34:17;0.00;;;0.00;;
64401;SDS011;50724;42.376;23.768;2024-03-25T00:37:18;0.20;;;0.13;;
64401;SDS011;50724;42.376;23.768;2024-03-25T00:40:18;0.00;;;0.00;;
64401;SDS011;50724;42.376;23.768;2024-03-25T00:43:20;0.45;;;0.15;;
64401;SDS011;50724;42.376;23.768;2024-03-25T00:46:20;0.08;;;0.08;;
64401;SDS011;50724;42.376;23.768;2024-03-25T00:49:21;0.20;;;0.20;;
64401;SDS011;50724;42.376;23.768;2024-03-25T00:52:21;0.10;;;0.10;;
64401;SDS011;50724;42.376;23.768;2024-03-25T00:55:22;0.25;;;0.20;;
64401;SDS011;50724;42.376;23.768;2024-03-25T00:58:22;0.05;;;0.05;;
64401;SDS011;50724;42.376;23.768;2024-03-25T01:01:23;0.30;;;0.30;;
64401;SDS011;50724;42.376;23.768;2024-03-25T01:04:23;0.57;;;0.20;;
64401;SDS011;50724;42.376;23.768;2024-03-25T01:07:23;0.63;;;0.47;;
64401;SDS011;50724;42.376;23.768;2024-03-25T01:10:24;0.10;;;0.10;;
64401;SDS011;50724;42.376;23.768;2024-03-25T01:13:32;0.98;;;0.20;;
64401;SDS011;50724;42.376;23.768;2024-03-25T01:16:33;0.25;;;0.20;;
64401;SDS011;50724;42.376;23.768;2024-03-25T01:19:33;0.35;;;0.35;;
64401;SDS011;50724;42.376;23.768;2024-03-25T01:22:34;0.40;;;0.30;;
64401;SDS011;50724;42.376;23.768;2024-03-25T01:25:34;0.00;;;0.00;;
64401;SDS011;50724;42.376;23.768;2024-03-25T01:28:34;0.20;;;0.20;;
64401;SDS011;50724;42.376;23.768;2024-03-25T01:31:35;0.77;;;0.33;;
64401;SDS011;50724;42.376;23.768;2024-03-25T01:34:35;0.43;;;0.20;;
64401;SDS011;50724;42.376;23.768;2024-03-25T01:37:36;0.70;;;0.35;;
64401;SDS011;50724;42.376;23.768;2024-03-25T01:40:36;1.35;;;0.43;;
64401;SDS011;50724;42.376;23.768;2024-03-25T01:43:37;0.47;;;0.47;;
64401;SDS011;50724;42.376;23.768;2024-03-25T01:46:38;0.35;;;0.25;;
64401;SDS011;50724;42.376;23.768;2024-03-25T01:49:39;0.17;;;0.17;;
64401;SDS011;50724;42.376;23.768;2024-03-25T01:52:40;0.43;;;0.25;;
64401;SDS011;50724;42.376;23.768;2024-03-25T01:55:41;0.40;;;0.30;;
64401;SDS011;50724;42.376;23.768;2024-03-25T01:58:42;0.57;;;0.40;;
64401;SDS011;50724;42.376;23.768;2024-03-25T02:01:43;0.25;;;0.25;;
64401;SDS011;50724;42.376;23.768;2024-03-25T02:07:46;0.60;;;0.30;;
64401;SDS011;50724;42.376;23.768;2024-03-25T02:10:48;0.10;;;0.10;;
64401;SDS011;50724;42.376;23.768;2024-03-25T02:13:50;0.77;;;0.30;;
64401;SDS011;50724;42.376;23.768;2024-03-25T02:16:51;0.25;;;0.22;;
64401;SDS011;50724;42.376;23.768;2024-03-25T02:19:51;0.15;;;0.10;;
64401;SDS011;50724;42.376;23.768;2024-03-25T02:22:52;0.30;;;0.20;;
64401;SDS011;50724;42.376;23.768;2024-03-25T02:25:52;0.17;;;0.10;;
64401;SDS011;50724;42.376;23.768;2024-03-25T02:28:53;0.15;;;0.15;;
64401;SDS011;50724;42.376;23.768;2024-03-25T02:31:54;0.50;;;0.35;;
64401;SDS011;50724;42.376;23.768;2024-03-25T02:34:54;0.10;;;0.10;;
64401;SDS011;50724;42.376;23.768;2024-03-25T02:37:55;1.13;;;0.60;;
64401;SDS011;50724;42.376;23.768;2024-03-25T02:40:55;0.55;;;0.20;;
64401;SDS011;50724;42.376;23.768;2024-03-25T02:43:56;0.47;;;0.38;;
64401;SDS011;50724;42.376;23.768;2024-03-25T02:46:57;1.02;;;0.43;;
64401;SDS011;50724;42.376;23.768;2024-03-25T02:49:58;0.63;;;0.20;;
64401;SDS011;50724;42.376;23.768;2024-03-25T02:52:59;1.17;;;0.60;;
64401;SDS011;50724;42.376;23.768;2024-03-25T02:55:59;2.00;;;0.80;;
64401;SDS011;50724;42.376;23.768;2024-03-25T02:58:59;1.13;;;0.40;;
64401;SDS011;50724;42.376;23.768;2024-03-25T03:02:00;3.47;;;0.77;;
64401;SDS011;50724;42.376;23.768;2024-03-25T03:05:00;3.40;;;1.00;;
64401;SDS011;50724;42.376;23.768;2024-03-25T03:08:02;1.55;;;0.73;;
64401;SDS011;50724;42.376;23.768;2024-03-25T03:11:03;0.93;;;0.50;;
64401;SDS011;50724;42.376;23.768;2024-03-25T03:14:03;1.30;;;0.60;;
64401;SDS011;50724;42.376;23.768;2024-03-25T03:17:04;0.88;;;0.47;;
64401;SDS011;50724;42.376;23.768;2024-03-25T03:20:05;1.15;;;0.55;;
64401;SDS011;50724;42.376;23.768;2024-03-25T03:23:06;1.33;;;0.77;;
64401;SDS011;50724;42.376;23.768;2024-03-25T03:26:07;1.27;;;0.57;;
64401;SDS011;50724;42.376;23.768;2024-03-25T03:29:07;1.07;;;0.47;;
64401;SDS011;50724;42.376;23.768;2024-03-25T03:32:16;0.50;;;0.45;;
64401;SDS011;50724;42.376;23.768;2024-03-25T03:35:16;0.90;;;0.53;;
64401;SDS011;50724;42.376;23.768;2024-03-25T03:38:17;1.37;;;0.57;;
64401;SDS011;50724;42.376;23.768;2024-03-25T03:41:17;0.82;;;0.50;;
64401;SDS011;50724;42.376;23.768;2024-03-25T03:44:18;1.35;;;0.70;;
64401;SDS011;50724;42.376;23.768;2024-03-25T03:47:18;1.03;;;0.50;;
64401;SDS011;50724;42.376;23.768;2024-03-25T03:50:18;0.47;;;0.47;;
64401;SDS011;50724;42.376;23.768;2024-03-25T03:53:19;0.73;;;0.30;;
64401;SDS011;50724;42.376;23.768;2024-03-25T03:56:19;1.25;;;0.40;;
64401;SDS011;50724;42.376;23.768;2024-03-25T03:59:20;0.30;;;0.30;;
64401;SDS011;50724;42.376;23.768;2024-03-25T04:02:20;0.80;;;0.40;;
64401;SDS011;50724;42.376;23.768;2024-03-25T04:05:21;0.52;;;0.40;;
64401;SDS011;50724;42.376;23.768;2024-03-25T04:08:21;0.35;;;0.35;;
64401;SDS011;50724;42.376;23.768;2024-03-25T04:11:22;0.73;;;0.50;;
64401;SDS011;50724;42.376;23.768;2024-03-25T04:14:22;0.67;;;0.50;;
64401;SDS011;50724;42.376;23.768;2024-03-25T04:17:23;0.45;;;0.40;;
64401;SDS011;50724;42.376;23.768;2024-03-25T04:20:23;0.70;;;0.40;;
64401;SDS011;50724;42.376;23.768;2024-03-25T04:23:24;2.85;;;0.90;;
64401;SDS011;50724;42.376;23.768;2024-03-25T04:26:25;2.38;;;0.70;;
64401;SDS011;50724;42.376;23.768;2024-03-25T04:29:25;0.30;;;0.27;;
64401;SDS011;50724;42.376;23.768;2024-03-25T04:32:25;1.88;;;0.68;;
64401;SDS011;50724;42.376;23.768;2024-03-25T04:35:26;1.53;;;0.63;;
64401;SDS011;50724;42.376;23.768;2024-03-25T04:38:26;1.33;;;0.70;;
64401;SDS011;50724;42.376;23.768;2024-03-25T04:41:27;1.50;;;0.65;;
64401;SDS011;50724;42.376;23.768;2024-03-25T04:44:36;1.00;;;0.50;;
64401;SDS011;50724;42.376;23.768;2024-03-25T04:47:36;1.23;;;0.70;;
64401;SDS011;50724;42.376;23.768;2024-03-25T04:50:37;1.30;;;0.70;;
64401;SDS011;50724;42.376;23.768;2024-03-25T04:53:38;1.67;;;0.87;;
64401;SDS011;50724;42.376;23.768;2024-03-25T04:56:38;2.10;;;1.00;;
64401;SDS011;50724;42.376;23.768;2024-03-25T04:59:39;2.83;;;1.02;;
64401;SDS011;50724;42.376;23.768;2024-03-25T05:02:39;1.03;;;0.67;;
64401;SDS011;50724;42.376;23.768;2024-03-25T05:05:39;2.00;;;0.90;;
64401;SDS011;50724;42.376;23.768;2024-03-25T05:08:41;5.22;;;1.60;;
64401;SDS011;50724;42.376;23.768;2024-03-25T05:11:41;3.00;;;1.20;;
64401;SDS011;50724;42.376;23.768;2024-03-25T05:14:41;6.38;;;2.15;;
64401;SDS011;50724;42.376;23.768;2024-03-25T05:17:42;4.30;;;1.40;;
64401;SDS011;50724;42.376;23.768;2024-03-25T05:20:51;3.60;;;1.30;;
64401;SDS011;50724;42.376;23.768;2024-03-25T05:26:52;3.87;;;1.57;;
64401;SDS011;50724;42.376;23.768;2024-03-25T05:29:52;4.70;;;1.80;;
64401;SDS011;50724;42.376;23.768;2024-03-25T05:32:53;7.27;;;3.30;;
64401;SDS011;50724;42.376;23.768;2024-03-25T05:35:53;5.75;;;2.17;;
64401;SDS011;50724;42.376;23.768;2024-03-25T05:38:53;7.67;;;3.57;;
64401;SDS011;50724;42.376;23.768;2024-03-25T05:41:54;6.00;;;2.45;;
64401;SDS011;50724;42.376;23.768;2024-03-25T05:44:54;9.88;;;3.88;;
64401;SDS011;50724;42.376;23.768;2024-03-25T05:47:55;9.45;;;4.20;;
64401;SDS011;50724;42.376;23.768;2024-03-25T05:51:04;7.72;;;3.30;;
64401;SDS011;50724;42.376;23.768;2024-03-25T05:54:06;10.32;;;4.70;;
64401;SDS011;50724;42.376;23.768;2024-03-25T05:57:06;7.77;;;2.67;;
64401;SDS011;50724;42.376;23.768;2024-03-25T06:00:07;7.45;;;3.47;;
64401;SDS011;50724;42.376;23.768;2024-03-25T06:03:08;9.32;;;3.90;;
64401;SDS011;50724;42.376;23.768;2024-03-25T06:06:08;8.80;;;3.55;;
64401;SDS011;50724;42.376;23.768;2024-03-25T06:09:09;7.65;;;3.05;;
64401;SDS011;50724;42.376;23.768;2024-03-25T06:12:10;8.10;;;3.83;;
64401;SDS011;50724;42.376;23.768;2024-03-25T06:15:10;8.37;;;3.33;;
64401;SDS011;50724;42.376;23.768;2024-03-25T06:18:11;8.45;;;3.38;;
64401;SDS011;50724;42.376;23.768;2024-03-25T06:21:11;9.48;;;4.20;;
64401;SDS011;50724;42.376;23.768;2024-03-25T06:24:13;8.13;;;2.95;;
64401;SDS011;50724;42.376;23.768;2024-03-25T06:27:13;9.35;;;3.78;;
64401;SDS011;50724;42.376;23.768;2024-03-25T06:30:14;8.85;;;3.38;;
64401;SDS011;50724;42.376;23.768;2024-03-25T06:33:33;8.35;;;3.97;;
64401;SDS011;50724;42.376;23.768;2024-03-25T06:36:52;8.27;;;3.42;;
64401;SDS011;50724;42.376;23.768;2024-03-25T06:39:53;8.25;;;3.20;;
64401;SDS011;50724;42.376;23.768;2024-03-25T06:42:53;9.20;;;2.97;;
64401;SDS011;50724;42.376;23.768;2024-03-25T06:45:54;7.18;;;3.05;;
64401;SDS011;50724;42.376;23.768;2024-03-25T06:48:54;7.93;;;3.53;;
64401;SDS011;50724;42.376;23.768;2024-03-25T06:51:55;10.77;;;4.30;;
64401;SDS011;50724;42.376;23.768;2024-03-25T06:54:55;8.50;;;3.23;;
64401;SDS011;50724;42.376;23.768;2024-03-25T06:57:56;8.70;;;3.78;;
64401;SDS011;50724;42.376;23.768;2024-03-25T07:01:03;7.10;;;3.05;;
64401;SDS011;50724;42.376;23.768;2024-03-25T07:04:04;7.90;;;3.97;;
64401;SDS011;50724;42.376;23.768;2024-03-25T07:07:05;8.60;;;3.87;;
64401;SDS011;50724;42.376;23.768;2024-03-25T07:10:05;6.97;;;3.70;;
64401;SDS011;50724;42.376;23.768;2024-03-25T07:13:14;10.10;;;4.00;;
64401;SDS011;50724;42.376;23.768;2024-03-25T07:16:15;8.85;;;3.97;;
64401;SDS011;50724;42.376;23.768;2024-03-25T07:19:15;6.60;;;3.50;;
64401;SDS011;50724;42.376;23.768;2024-03-25T07:22:16;8.38;;;3.78;;
64401;SDS011;50724;42.376;23.768;2024-03-25T07:25:17;7.13;;;3.03;;
64401;SDS011;50724;42.376;23.768;2024-03-25T07:28:17;7.03;;;3.30;;
64401;SDS011;50724;42.376;23.768;2024-03-25T07:31:18;7.23;;;3.20;;
64401;SDS011;50724;42.376;23.768;2024-03-25T07:34:18;7.95;;;3.85;;
64401;SDS011;50724;42.376;23.768;2024-03-25T07:37:19;7.13;;;2.93;;
64401;SDS011;50724;42.376;23.768;2024-03-25T07:40:19;7.72;;;3.97;;
64401;SDS011;50724;42.376;23.768;2024-03-25T07:43:21;8.35;;;3.50;;
64401;SDS011;50724;42.376;23.768;2024-03-25T07:46:21;7.57;;;2.72;;
64401;SDS011;50724;42.376;23.768;2024-03-25T07:49:22;6.70;;;3.17;;
64401;SDS011;50724;42.376;23.768;2024-03-25T07:52:22;7.60;;;3.92;;
64401;SDS011;50724;42.376;23.768;2024-03-25T07:55:23;6.63;;;3.20;;
64401;SDS011;50724;42.376;23.768;2024-03-25T07:58:23;11.80;;;3.63;;
64401;SDS011;50724;42.376;23.768;2024-03-25T08:01:24;9.18;;;4.40;;
64401;SDS011;50724;42.376;23.768;2024-03-25T08:04:25;6.68;;;3.25;;
64401;SDS011;50724;42.376;23.768;2024-03-25T08:07:25;8.45;;;2.95;;
64401;SDS011;50724;42.376;23.768;2024-03-25T08:10:26;6.32;;;3.15;;
64401;SDS011;50724;42.376;23.768;2024-03-25T08:13:26;4.63;;;2.00;;
64401;SDS011;50724;42.376;23.768;2024-03-25T08:16:27;5.45;;;2.88;;
64401;SDS011;50724;42.376;23.768;2024-03-25T08:22:36;7.07;;;2.60;;
64401;SDS011;50724;42.376;23.768;2024-03-25T08:25:37;5.63;;;2.60;;
64401;SDS011;50724;42.376;23.768;2024-03-25T08:28:37;5.57;;;2.80;;
64401;SDS011;50724;42.376;23.768;2024-03-25T08:31:37;3.83;;;1.90;;
64401;SDS011;50724;42.376;23.768;2024-03-25T08:34:38;3.80;;;1.90;;
64401;SDS011;50724;42.376;23.768;2024-03-25T08:37:38;4.53;;;1.83;;
64401;SDS011;50724;42.376;23.768;2024-03-25T08:40:39;4.03;;;2.03;;
64401;SDS011;50724;42.376;23.768;2024-03-25T08:43:40;5.38;;;2.45;;
64401;SDS011;50724;42.376;23.768;2024-03-25T08:46:41;4.90;;;2.08;;
64401;SDS011;50724;42.376;23.768;2024-03-25T08:49:41;4.75;;;1.77;;
64401;SDS011;50724;42.376;23.768;2024-03-25T08:52:41;5.10;;;1.98;;
64401;SDS011;50724;42.376;23.768;2024-03-25T08:55:45;4.90;;;2.17;;
64401;SDS011;50724;42.376;23.768;2024-03-25T08:58:46;4.50;;;1.95;;
64401;SDS011;50724;42.376;23.768;2024-03-25T09:01:46;4.63;;;2.15;;
64401;SDS011;50724;42.376;23.768;2024-03-25T09:04:56;4.82;;;2.70;;
64401;SDS011;50724;42.376;23.768;2024-03-25T09:07:57;6.15;;;2.25;;
64401;SDS011;50724;42.376;23.768;2024-03-25T09:10:58;4.80;;;2.55;;
64401;SDS011;50724;42.376;23.768;2024-03-25T09:14:07;6.78;;;2.10;;
64401;SDS011;50724;42.376;23.768;2024-03-25T09:17:07;4.55;;;2.20;;
64401;SDS011;50724;42.376;23.768;2024-03-25T09:20:08;4.72;;;2.20;;
64401;SDS011;50724;42.376;23.768;2024-03-25T09:23:16;3.13;;;1.67;;
64401;SDS011;50724;42.376;23.768;2024-03-25T09:26:17;2.78;;;1.50;;
64401;SDS011;50724;42.376;23.768;2024-03-25T09:29:17;3.72;;;1.77;;
64401;SDS011;50724;42.376;23.768;2024-03-25T09:32:18;4.13;;;2.17;;
64401;SDS011;50724;42.376;23.768;2024-03-25T09:35:20;4.82;;;1.67;;
64401;SDS011;50724;42.376;23.768;2024-03-25T09:38:21;4.80;;;2.25;;
64401;SDS011;50724;42.376;23.768;2024-03-25T09:41:21;5.03;;;1.90;;
64401;SDS011;50724;42.376;23.768;2024-03-25T09:44:24;7.13;;;2.35;;
64401;SDS011;50724;42.376;23.768;2024-03-25T09:47:25;4.35;;;2.22;;
64401;SDS011;50724;42.376;23.768;2024-03-25T09:50:26;5.25;;;2.30;;
64401;SDS011;50724;42.376;23.768;2024-03-25T09:53:27;6.85;;;2.30;;
64401;SDS011;50724;42.376;23.768;2024-03-25T09:56:27;5.72;;;2.30;;
64401;SDS011;50724;42.376;23.768;2024-03-25T09:59:28;7.32;;;3.03;;
64401;SDS011;50724;42.376;23.768;2024-03-25T10:02:28;6.22;;;2.53;;
64401;SDS011;50724;42.376;23.768;2024-03-25T10:05:30;4.93;;;2.33;;
64401;SDS011;50724;42.376;23.768;2024-03-25T10:08:31;4.13;;;2.13;;
64401;SDS011;50724;42.376;23.768;2024-03-25T10:11:31;4.05;;;1.80;;
64401;SDS011;50724;42.376;23.768;2024-03-25T10:14:35;4.00;;;1.85;;
64401;SDS011;50724;42.376;23.768;2024-03-25T10:17:36;3.75;;;1.85;;
64401;SDS011;50724;42.376;23.768;2024-03-25T10:20:37;3.40;;;1.83;;
64401;SDS011;50724;42.376;23.768;2024-03-25T10:23:39;4.65;;;1.95;;
64401;SDS011;50724;42.376;23.768;2024-03-25T10:26:42;4.85;;;2.35;;
64401;SDS011;50724;42.376;23.768;2024-03-25T10:29:43;4.72;;;2.40;;
64401;SDS011;50724;42.376;23.768;2024-03-25T10:32:44;5.38;;;2.60;;
64401;SDS011;50724;42.376;23.768;2024-03-25T10:35:44;5.18;;;2.40;;
64401;SDS011;50724;42.376;23.768;2024-03-25T10:38:48;4.72;;;2.35;;
64401;SDS011;50724;42.376;23.768;2024-03-25T10:41:49;3.47;;;1.85;;
64401;SDS011;50724;42.376;23.768;2024-03-25T10:44:50;4.63;;;2.20;;
64401;SDS011;50724;42.376;23.768;2024-03-25T10:47:52;5.07;;;1.95;;
64401;SDS011;50724;42.376;23.768;2024-03-25T10:50:57;4.40;;;1.95;;
64401;SDS011;50724;42.376;23.768;2024-03-25T10:54:01;4.65;;;1.95;;
64401;SDS011;50724;42.376;23.768;2024-03-25T10:57:04;4.25;;;2.00;;
64401;SDS011;50724;42.376;23.768;2024-03-25T11:00:09;3.65;;;1.85;;
64401;SDS011;50724;42.376;23.768;2024-03-25T11:03:14;4.25;;;2.00;;
64401;SDS011;50724;42.376;23.768;2024-03-25T11:06:15;5.72;;;1.90;;
64401;SDS011;50724;42.376;23.768;2024-03-25T11:09:24;6.32;;;2.95;;
64401;SDS011;50724;42.376;23.768;2024-03-25T11:15:44;5.38;;;2.88;;
64401;SDS011;50724;42.376;23.768;2024-03-25T11:18:50;7.80;;;3.70;;
64401;SDS011;50724;42.376;23.768;2024-03-25T11:21:51;7.93;;;3.65;;
64401;SDS011;50724;42.376;23.768;2024-03-25T11:24:52;6.32;;;3.28;;
64401;SDS011;50724;42.376;23.768;2024-03-25T11:27:55;7.10;;;2.78;;
64401;SDS011;50724;42.376;23.768;2024-03-25T11:30:55;6.85;;;3.42;;
64401;SDS011;50724;42.376;23.768;2024-03-25T11:33:56;6.22;;;3.42;;
64401;SDS011;50724;42.376;23.768;2024-03-25T11:36:57;6.20;;;3.42;;
64401;SDS011;50724;42.376;23.768;2024-03-25T11:40:02;7.30;;;3.30;;
64401;SDS011;50724;42.376;23.768;2024-03-25T11:43:04;6.15;;;3.63;;
64401;SDS011;50724;42.376;23.768;2024-03-25T11:46:05;7.72;;;3.97;;
64401;SDS011;50724;42.376;23.768;2024-03-25T11:49:12;6.03;;;3.45;;
64401;SDS011;50724;42.376;23.768;2024-03-25T11:52:14;6.38;;;3.42;;
64401;SDS011;50724;42.376;23.768;2024-03-25T11:55:16;7.28;;;3.75;;
64401;SDS011;50724;42.376;23.768;2024-03-25T11:58:17;7.97;;;3.83;;
64401;SDS011;50724;42.376;23.768;2024-03-25T12:01:18;7.30;;;3.58;;
64401;SDS011;50724;42.376;23.768;2024-03-25T12:04:19;5.07;;;2.85;;
64401;SDS011;50724;42.376;23.768;2024-03-25T12:07:19;4.40;;;2.15;;
64401;SDS011;50724;42.376;23.768;2024-03-25T12:10:19;5.70;;;2.90;;
64401;SDS011;50724;42.376;23.768;2024-03-25T12:13:39;5.47;;;2.65;;
64401;SDS011;50724;42.376;23.768;2024-03-25T12:16:43;7.20;;;3.20;;
64401;SDS011;50724;42.376;23.768;2024-03-25T12:19:43;5.18;;;2.38;;
64401;SDS011;50724;42.376;23.768;2024-03-25T12:22:44;5.43;;;3.03;;
64401;SDS011;50724;42.376;23.768;2024-03-25T12:25:48;6.43;;;2.40;;
64401;SDS011;50724;42.376;23.768;2024-03-25T12:28:49;3.78;;;1.95;;
64401;SDS011;50724;42.376;23.768;2024-03-25T12:31:56;4.13;;;1.90;;
64401;SDS011;50724;42.376;23.768;2024-03-25T12:34:58;2.22;;;1.23;;
64401;SDS011;50724;42.376;23.768;2024-03-25T12:37:58;4.07;;;2.10;;
64401;SDS011;50724;42.376;23.768;2024-03-25T12:41:06;4.93;;;2.20;;
64401;SDS011;50724;42.376;23.768;2024-03-25T12:44:06;5.15;;;2.00;;
64401;SDS011;50724;42.376;23.768;2024-03-25T12:47:07;5.07;;;2.00;;
64401;SDS011;50724;42.376;23.768;2024-03-25T12:50:07;3.60;;;1.85;;
64401;SDS011;50724;42.376;23.768;2024-03-25T12:53:09;3.88;;;2.10;;
64401;SDS011;50724;42.376;23.768;2024-03-25T12:56:17;2.88;;;1.48;;
64401;SDS011;50724;42.376;23.768;2024-03-25T12:59:18;3.72;;;1.60;;
64401;SDS011;50724;42.376;23.768;2024-03-25T13:02:18;3.83;;;1.90;;
64401;SDS011;50724;42.376;23.768;2024-03-25T13:05:19;4.70;;;1.80;;
64401;SDS011;50724;42.376;23.768;2024-03-25T13:08:19;3.47;;;1.47;;
64401;SDS011;50724;42.376;23.768;2024-03-25T13:11:20;3.55;;;1.95;;
64401;SDS011;50724;42.376;23.768;2024-03-25T13:14:20;3.67;;;1.75;;
64401;SDS011;50724;42.376;23.768;2024-03-25T13:17:21;4.18;;;1.73;;
64401;SDS011;50724;42.376;23.768;2024-03-25T13:20:21;4.72;;;2.13;;
64401;SDS011;50724;42.376;23.768;2024-03-25T13:23:22;2.97;;;1.60;;
64401;SDS011;50724;42.376;23.768;2024-03-25T13:26:22;5.55;;;2.00;;
64401;SDS011;50724;42.376;23.768;2024-03-25T13:29:23;5.65;;;1.92;;
64401;SDS011;50724;42.376;23.768;2024-03-25T13:32:23;3.83;;;2.03;;
64401;SDS011;50724;42.376;23.768;2024-03-25T13:35:23;4.20;;;2.17;;
64401;SDS011;50724;42.376;23.768;2024-03-25T13:38:24;4.25;;;2.08;;
64401;SDS011;50724;42.376;23.768;2024-03-25T13:41:25;5.18;;;2.40;;
64401;SDS011;50724;42.376;23.768;2024-03-25T13:44:25;4.63;;;2.38;;
64401;SDS011;50724;42.376;23.768;2024-03-25T13:47:26;4.32;;;1.92;;
64401;SDS011;50724;42.376;23.768;2024-03-25T13:50:26;2.25;;;1.27;;
64401;SDS011;50724;42.376;23.768;2024-03-25T13:53:26;2.45;;;1.50;;
64401;SDS011;50724;42.376;23.768;2024-03-25T13:56:27;2.05;;;1.20;;
64401;SDS011;50724;42.376;23.768;2024-03-25T13:59:27;2.50;;;1.33;;
64401;SDS011;50724;42.376;23.768;2024-03-25T14:02:28;2.73;;;1.53;;
64401;SDS011;50724;42.376;23.768;2024-03-25T14:05:28;2.38;;;1.38;;
64401;SDS011;50724;42.376;23.768;2024-03-25T14:08:29;2.47;;;1.40;;
64401;SDS011;50724;42.376;23.768;2024-03-25T14:11:38;3.03;;;1.50;;
64401;SDS011;50724;42.376;23.768;2024-03-25T14:14:38;3.78;;;1.60;;
64401;SDS011;50724;42.376;23.768;2024-03-25T14:17:39;2.60;;;1.50;;
64401;SDS011;50724;42.376;23.768;2024-03-25T14:20:39;2.70;;;1.50;;
64401;SDS011;50724;42.376;23.768;2024-03-25T14:23:40;3.40;;;1.50;;
64401;SDS011;50724;42.376;23.768;2024-03-25T14:26:43;2.97;;;1.42;;
64401;SDS011;50724;42.376;23.768;2024-03-25T14:29:44;2.53;;;1.38;;
64401;SDS011;50724;42.376;23.768;2024-03-25T14:32:44;2.65;;;1.45;;
64401;SDS011;50724;42.376;23.768;2024-03-25T14:35:45;3.10;;;1.52;;
64401;SDS011;50724;42.376;23.768;2024-03-25T14:38:45;2.95;;;1.50;;
64401;SDS011;50724;42.376;23.768;2024-03-25T14:41:45;3.03;;;1.50;;
64401;SDS011;50724;42.376;23.768;2024-03-25T14:44:46;3.93;;;1.83;;
64401;SDS011;50724;42.376;23.768;2024-03-25T14:47:47;5.30;;;1.70;;
64401;SDS011;50724;42.376;23.768;2024-03-25T14:50:48;4.38;;;1.70;;
64401;SDS011;50724;42.376;23.768;2024-03-25T14:53:48;3.42;;;1.80;;
64401;SDS011;50724;42.376;23.768;2024-03-25T14:56:49;2.17;;;1.42;;
64401;SDS011;50724;42.376;23.768;2024-03-25T14:59:49;3.33;;;1.65;;
64401;SDS011;50724;42.376;23.768;2024-03-25T15:02:52;3.53;;;1.70;;
64401;SDS011;50724;42.376;23.768;2024-03-25T15:06:02;4.03;;;1.80;;
64401;SDS011;50724;42.376;23.768;2024-03-25T15:09:03;3.60;;;1.88;;
64401;SDS011;50724;42.376;23.768;2024-03-25T15:12:14;3.80;;;1.58;;
64401;SDS011;50724;42.376;23.768;2024-03-25T15:15:14;3.10;;;1.55;;
64401;SDS011;50724;42.376;23.768;2024-03-25T15:18:15;3.55;;;1.70;;
64401;SDS011;50724;42.376;23.768;2024-03-25T15:21:16;2.22;;;1.17;;
64401;SDS011;50724;42.376;23.768;2024-03-25T15:24:16;2.88;;;1.40;;
64401;SDS011;50724;42.376;23.768;2024-03-25T15:27:16;4.07;;;1.95;;
64401;SDS011;50724;42.376;23.768;2024-03-25T15:30:17;2.55;;;1.40;;
64401;SDS011;50724;42.376;23.768;2024-03-25T15:33:17;3.13;;;1.50;;
64401;SDS011;50724;42.376;23.768;2024-03-25T15:36:18;2.70;;;1.42;;
64401;SDS011;50724;42.376;23.768;2024-03-25T15:39:18;3.45;;;1.50;;
64401;SDS011;50724;42.376;23.768;2024-03-25T15:42:19;3.10;;;1.30;;
64401;SDS011;50724;42.376;23.768;2024-03-25T15:45:19;2.95;;;1.50;;
64401;SDS011;50724;42.376;23.768;2024-03-25T15:48:20;5.60;;;1.80;;
64401;SDS011;50724;42.376;23.768;2024-03-25T15:51:21;2.88;;;1.70;;
64401;SDS011;50724;42.376;23.768;2024-03-25T15:54:21;3.78;;;1.45;;
64401;SDS011;50724;42.376;23.768;2024-03-25T15:57:21;3.37;;;1.77;;
64401;SDS011;50724;42.376;23.768;2024-03-25T16:00:22;5.05;;;1.60;;
64401;SDS011;50724;42.376;23.768;2024-03-25T16:03:22;3.25;;;1.52;;
64401;SDS011;50724;42.376;23.768;2024-03-25T16:06:23;2.72;;;1.50;;
64401;SDS011;50724;42.376;23.768;2024-03-25T16:09:24;3.47;;;1.63;;
64401;SDS011;50724;42.376;23.768;2024-03-25T16:12:24;3.50;;;1.70;;
64401;SDS011;50724;42.376;23.768;2024-03-25T16:15:32;3.97;;;1.92;;
64401;SDS011;50724;42.376;23.768;2024-03-25T16:18:32;3.88;;;1.73;;
64401;SDS011;50724;42.376;23.768;2024-03-25T16:21:33;3.58;;;1.75;;
64401;SDS011;50724;42.376;23.768;2024-03-25T16:24:33;3.33;;;1.80;;
64401;SDS011;50724;42.376;23.768;2024-03-25T16:27:35;3.58;;;1.85;;
64401;SDS011;50724;42.376;23.768;2024-03-25T16:30:36;2.75;;;1.60;;
64401;SDS011;50724;42.376;23.768;2024-03-25T16:33:36;2.67;;;1.50;;
64401;SDS011;50724;42.376;23.768;2024-03-25T16:36:37;7.78;;;2.50;;
64401;SDS011;50724;42.376;23.768;2024-03-25T16:39:39;6.90;;;2.80;;
64401;SDS011;50724;42.376;23.768;2024-03-25T16:42:39;5.15;;;2.38;;
64401;SDS011;50724;42.376;23.768;2024-03-25T16:45:39;4.50;;;2.35;;
64401;SDS011;50724;42.376;23.768;2024-03-25T16:48:40;5.15;;;2.15;;
64401;SDS011;50724;42.376;23.768;2024-03-25T16:51:40;3.25;;;1.45;;
64401;SDS011;50724;42.376;23.768;2024-03-25T16:54:41;2.15;;;1.25;;
64401;SDS011;50724;42.376;23.768;2024-03-25T16:57:42;4.20;;;1.70;;
64401;SDS011;50724;42.376;23.768;2024-03-25T17:00:42;2.95;;;1.48;;
64401;SDS011;50724;42.376;23.768;2024-03-25T17:03:43;3.15;;;1.52;;
64401;SDS011;50724;42.376;23.768;2024-03-25T17:06:43;14.18;;;4.63;;
64401;SDS011;50724;42.376;23.768;2024-03-25T17:09:44;6.72;;;2.83;;
64401;SDS011;50724;42.376;23.768;2024-03-25T17:12:44;4.68;;;2.08;;
64401;SDS011;50724;42.376;23.768;2024-03-25T17:15:45;3.97;;;1.80;;
64401;SDS011;50724;42.376;23.768;2024-03-25T17:18:47;4.72;;;2.15;;
64401;SDS011;50724;42.376;23.768;2024-03-25T17:21:47;6.33;;;2.00;;
64401;SDS011;50724;42.376;23.768;2024-03-25T17:24:47;4.10;;;1.70;;
64401;SDS011;50724;42.376;23.768;2024-03-25T17:27:48;3.45;;;1.67;;
64401;SDS011;50724;42.376;23.768;2024-03-25T17:30:48;4.10;;;1.87;;
64401;SDS011;50724;42.376;23.768;2024-03-25T17:33:49;4.60;;;1.50;;
64401;SDS011;50724;42.376;23.768;2024-03-25T17:36:49;3.58;;;1.50;;
64401;SDS011;50724;42.376;23.768;2024-03-25T17:39:52;3.42;;;1.55;;
64401;SDS011;50724;42.376;23.768;2024-03-25T17:42:52;2.25;;;1.20;;
64401;SDS011;50724;42.376;23.768;2024-03-25T17:45:53;1.60;;;1.00;;
64401;SDS011;50724;42.376;23.768;2024-03-25T17:48:53;2.50;;;1.20;;
64401;SDS011;50724;42.376;23.768;2024-03-25T17:51:54;1.42;;;0.80;;
64401;SDS011;50724;42.376;23.768;2024-03-25T17:54:55;1.55;;;0.90;;
64401;SDS011;50724;42.376;23.768;2024-03-25T17:57:55;2.20;;;1.00;;
64401;SDS011;50724;42.376;23.768;2024-03-25T18:00:55;1.73;;;1.10;;
64401;SDS011;50724;42.376;23.768;2024-03-25T18:03:56;2.33;;;1.13;;
64401;SDS011;50724;42.376;23.768;2024-03-25T18:06:59;3.53;;;1.38;;
64401;SDS011;50724;42.376;23.768;2024-03-25T18:09:59;3.25;;;1.60;;